Mechanic Falls, Maine
Current Conditions -  °F | °C
As of 6:35 PM on Tuesday 25 Nov 2014 (Local Time) from KLEW Reporting Station
Clear Clear  
Wind Chill: 44°   Ceiling: Unl
Heat Index: 48°   Visibility: 10mi
Dew Point: 23°   Wind: 10mph
Humidity: 37%   Direction: 250°WSW
Pressure: 29.93"   Gusts: NA
Location:  44.11°N, 70.39°W
Report Text: KLEW 252335Z AUTO 25009KT 10SM CLR 09/M05 A2993 RMK AO1
Loading
Personal Weather Stations






























Interactive Weather Map New forecast layout! Learn more

10-Day Weather Forecast

Advertisements
Track Severe Weather on mobile